sensor_id;sensor_type;location;lat;lon;timestamp;pressure;altitude;pressure_sealevel;temperature;humidity
13934;BME280;7039;52.168;9.866;2023-02-22T00:01:35;100666.91;;;11.14;82.58
13934;BME280;7039;52.168;9.866;2023-02-22T00:04:22;100675.88;;;11.25;82.55
13934;BME280;7039;52.168;9.866;2023-02-22T00:06:49;100674.81;;;11.29;82.13
13934;BME280;7039;52.168;9.866;2023-02-22T00:09:16;100671.19;;;11.15;82.24
13934;BME280;7039;52.168;9.866;2023-02-22T00:12:14;100674.34;;;11.21;82.13
13934;BME280;7039;52.168;9.866;2023-02-22T00:14:40;100662.44;;;11.16;82.53
13934;BME280;7039;52.168;9.866;2023-02-22T00:17:07;100672.06;;;11.15;82.15
13934;BME280;7039;52.168;9.866;2023-02-22T00:19:34;100662.38;;;11.17;82.13
13934;BME280;7039;52.168;9.866;2023-02-22T00:22:01;100673.97;;;11.29;81.80
13934;BME280;7039;52.168;9.866;2023-02-22T00:24:31;100669.38;;;11.34;81.61
13934;BME280;7039;52.168;9.866;2023-02-22T00:27:00;100668.91;;;11.26;81.35
13934;BME280;7039;52.168;9.866;2023-02-22T00:29:29;100669.66;;;11.28;81.69
13934;BME280;7039;52.168;9.866;2023-02-22T00:31:55;100669.38;;;11.34;81.21
13934;BME280;7039;52.168;9.866;2023-02-22T00:34:23;100663.06;;;11.21;81.25
13934;BME280;7039;52.168;9.866;2023-02-22T00:36:51;100654.94;;;11.27;81.37
13934;BME280;7039;52.168;9.866;2023-02-22T00:39:18;100657.22;;;11.33;81.20
13934;BME280;7039;52.168;9.866;2023-02-22T00:41:47;100651.94;;;11.35;81.18
13934;BME280;7039;52.168;9.866;2023-02-22T00:44:16;100652.09;;;11.32;80.97
13934;BME280;7039;52.168;9.866;2023-02-22T00:46:44;100642.88;;;11.24;81.43
13934;BME280;7039;52.168;9.866;2023-02-22T00:49:11;100639.88;;;11.32;81.16
13934;BME280;7039;52.168;9.866;2023-02-22T00:51:38;100641.72;;;11.30;81.36
13934;BME280;7039;52.168;9.866;2023-02-22T00:54:07;100636.56;;;11.28;81.31
13934;BME280;7039;52.168;9.866;2023-02-22T00:56:36;100645.25;;;11.29;81.08
13934;BME280;7039;52.168;9.866;2023-02-22T00:59:03;100639.28;;;11.27;80.75
13934;BME280;7039;52.168;9.866;2023-02-22T01:01:30;100633.94;;;11.28;80.76
13934;BME280;7039;52.168;9.866;2023-02-22T01:04:00;100624.84;;;11.20;80.81
13934;BME280;7039;52.168;9.866;2023-02-22T01:06:27;100635.75;;;11.11;81.11
13934;BME280;7039;52.168;9.866;2023-02-22T01:08:55;100632.66;;;11.20;81.04
13934;BME280;7039;52.168;9.866;2023-02-22T01:11:22;100622.22;;;11.20;80.92
13934;BME280;7039;52.168;9.866;2023-02-22T01:13:49;100625.59;;;11.22;80.61
13934;BME280;7039;52.168;9.866;2023-02-22T01:16:20;100629.72;;;11.26;80.70
13934;BME280;7039;52.168;9.866;2023-02-22T01:18:49;100619.22;;;11.27;80.26
13934;BME280;7039;52.168;9.866;2023-02-22T01:21:20;100619.81;;;11.33;80.29
13934;BME280;7039;52.168;9.866;2023-02-22T01:23:47;100617.53;;;11.26;80.21
13934;BME280;7039;52.168;9.866;2023-02-22T01:26:13;100617.53;;;11.26;80.14
13934;BME280;7039;52.168;9.866;2023-02-22T01:28:40;100615.91;;;11.24;80.44
13934;BME280;7039;52.168;9.866;2023-02-22T01:31:06;100614.69;;;11.14;80.03
13934;BME280;7039;52.168;9.866;2023-02-22T01:33:33;100607.41;;;10.85;80.46
13934;BME280;7039;52.168;9.866;2023-02-22T01:36:00;100615.97;;;10.87;80.62
13934;BME280;7039;52.168;9.866;2023-02-22T01:38:29;100605.53;;;10.87;80.95
13934;BME280;7039;52.168;9.866;2023-02-22T01:40:56;100608.97;;;10.71;81.65
13934;BME280;7039;52.168;9.866;2023-02-22T01:43:25;100608.00;;;10.91;81.18
13934;BME280;7039;52.168;9.866;2023-02-22T01:45:57;100597.81;;;10.86;80.83
13934;BME280;7039;52.168;9.866;2023-02-22T01:48:32;100592.63;;;10.67;81.04
13934;BME280;7039;52.168;9.866;2023-02-22T01:51:11;100598.31;;;10.75;81.52
13934;BME280;7039;52.168;9.866;2023-02-22T01:53:56;100591.50;;;10.90;81.18
13934;BME280;7039;52.168;9.866;2023-02-22T01:56:26;100591.22;;;10.60;82.01
13934;BME280;7039;52.168;9.866;2023-02-22T01:58:59;100592.16;;;10.59;81.66
13934;BME280;7039;52.168;9.866;2023-02-22T02:01:29;100590.91;;;10.49;82.46
13934;BME280;7039;52.168;9.866;2023-02-22T02:04:00;100582.91;;;10.34;83.30
13934;BME280;7039;52.168;9.866;2023-02-22T02:06:31;100577.94;;;10.28;83.76
13934;BME280;7039;52.168;9.866;2023-02-22T02:09:07;100578.56;;;10.14;83.78
13934;BME280;7039;52.168;9.866;2023-02-22T02:11:38;100583.09;;;10.11;84.35
13934;BME280;7039;52.168;9.866;2023-02-22T02:14:08;100582.94;;;10.14;83.81
13934;BME280;7039;52.168;9.866;2023-02-22T02:16:59;100584.28;;;10.03;84.46
13934;BME280;7039;52.168;9.866;2023-02-22T02:19:35;100579.59;;;9.93;84.73
13934;BME280;7039;52.168;9.866;2023-02-22T02:22:16;100575.56;;;9.86;85.39
13934;BME280;7039;52.168;9.866;2023-02-22T02:31:00;100568.91;;;9.78;84.95
13934;BME280;7039;52.168;9.866;2023-02-22T02:33:42;100565.47;;;9.59;85.88
13934;BME280;7039;52.168;9.866;2023-02-22T02:36:18;100571.53;;;9.59;86.15
13934;BME280;7039;52.168;9.866;2023-02-22T02:38:51;100562.78;;;9.60;86.20
13934;BME280;7039;52.168;9.866;2023-02-22T02:41:24;100563.91;;;9.55;86.08
13934;BME280;7039;52.168;9.866;2023-02-22T02:43:58;100556.25;;;9.52;86.39
13934;BME280;7039;52.168;9.866;2023-02-22T02:46:32;100564.13;;;9.50;86.14
13934;BME280;7039;52.168;9.866;2023-02-22T02:49:07;100558.09;;;9.29;87.05
13934;BME280;7039;52.168;9.866;2023-02-22T02:51:39;100563.75;;;9.39;87.15
13934;BME280;7039;52.168;9.866;2023-02-22T02:54:10;100554.72;;;9.27;87.14
13934;BME280;7039;52.168;9.866;2023-02-22T02:56:40;100563.59;;;9.42;86.97
13934;BME280;7039;52.168;9.866;2023-02-22T02:59:25;100567.69;;;9.48;86.65
13934;BME280;7039;52.168;9.866;2023-02-22T03:02:02;100557.41;;;9.65;86.22
13934;BME280;7039;52.168;9.866;2023-02-22T03:04:48;100556.31;;;9.69;85.73
13934;BME280;7039;52.168;9.866;2023-02-22T03:07:41;100555.22;;;9.75;85.97
13934;BME280;7039;52.168;9.866;2023-02-22T03:10:44;100556.41;;;9.87;85.23
13934;BME280;7039;52.168;9.866;2023-02-22T03:13:21;100546.41;;;9.96;85.01
13934;BME280;7039;52.168;9.866;2023-02-22T03:15:55;100542.38;;;9.89;85.59
13934;BME280;7039;52.168;9.866;2023-02-22T03:18:31;100546.75;;;10.08;84.86
13934;BME280;7039;52.168;9.866;2023-02-22T03:21:10;100545.97;;;10.24;84.21
13934;BME280;7039;52.168;9.866;2023-02-22T03:23:45;100548.28;;;10.31;84.27
13934;BME280;7039;52.168;9.866;2023-02-22T03:26:20;100539.50;;;10.33;84.22
13934;BME280;7039;52.168;9.866;2023-02-22T03:28:50;100534.91;;;10.38;84.12
13934;BME280;7039;52.168;9.866;2023-02-22T03:31:22;100528.84;;;10.38;84.12
13934;BME280;7039;52.168;9.866;2023-02-22T03:33:52;100534.53;;;10.46;83.86
13934;BME280;7039;52.168;9.866;2023-02-22T03:36:25;100524.38;;;10.40;83.79
13934;BME280;7039;52.168;9.866;2023-02-22T03:38:55;100520.31;;;10.34;84.10
13934;BME280;7039;52.168;9.866;2023-02-22T03:41:24;100524.59;;;10.35;84.54
13934;BME280;7039;52.168;9.866;2023-02-22T03:43:54;100517.50;;;10.20;85.18
13934;BME280;7039;52.168;9.866;2023-02-22T03:46:22;100510.31;;;10.25;85.02
13934;BME280;7039;52.168;9.866;2023-02-22T03:49:07;100520.03;;;10.21;85.69
13934;BME280;7039;52.168;9.866;2023-02-22T03:51:38;100519.34;;;10.18;85.56
13934;BME280;7039;52.168;9.866;2023-02-22T03:54:10;100518.97;;;10.25;85.19
13934;BME280;7039;52.168;9.866;2023-02-22T03:56:44;100513.94;;;10.03;86.20
13934;BME280;7039;52.168;9.866;2023-02-22T03:59:15;100515.22;;;9.95;86.73
13934;BME280;7039;52.168;9.866;2023-02-22T04:01:42;100514.00;;;10.02;86.93
13934;BME280;7039;52.168;9.866;2023-02-22T04:04:08;100507.44;;;10.12;86.24
13934;BME280;7039;52.168;9.866;2023-02-22T04:06:36;100511.09;;;10.27;85.76
13934;BME280;7039;52.168;9.866;2023-02-22T04:09:03;100505.53;;;10.16;85.91
13934;BME280;7039;52.168;9.866;2023-02-22T04:11:29;100505.53;;;10.16;86.00
13934;BME280;7039;52.168;9.866;2023-02-22T04:13:56;100501.66;;;10.24;85.79
13934;BME280;7039;52.168;9.866;2023-02-22T04:16:22;100506.72;;;10.28;85.58
13934;BME280;7039;52.168;9.866;2023-02-22T04:18:49;100509.69;;;10.01;86.26
13934;BME280;7039;52.168;9.866;2023-02-22T04:21:15;100507.31;;;10.15;86.09
13934;BME280;7039;52.168;9.866;2023-02-22T04:23:43;100508.41;;;10.29;85.51
13934;BME280;7039;52.168;9.866;2023-02-22T04:26:10;100502.88;;;10.17;85.78
13934;BME280;7039;52.168;9.866;2023-02-22T04:28:36;100492.56;;;10.14;86.08
13934;BME280;7039;52.168;9.866;2023-02-22T04:31:03;100503.28;;;10.08;86.56
13934;BME280;7039;52.168;9.866;2023-02-22T04:33:29;100499.94;;;10.06;86.07
13934;BME280;7039;52.168;9.866;2023-02-22T04:35:55;100503.78;;;10.16;85.90
13934;BME280;7039;52.168;9.866;2023-02-22T04:38:22;100493.41;;;10.15;85.83
13934;BME280;7039;52.168;9.866;2023-02-22T04:40:51;100498.38;;;10.02;86.04
13934;BME280;7039;52.168;9.866;2023-02-22T04:43:18;100501.38;;;10.12;85.62
13934;BME280;7039;52.168;9.866;2023-02-22T04:45:44;100497.09;;;10.11;85.61
13934;BME280;7039;52.168;9.866;2023-02-22T04:48:11;100501.28;;;9.96;85.86
13934;BME280;7039;52.168;9.866;2023-02-22T04:50:37;100498.03;;;9.91;86.24
13934;BME280;7039;52.168;9.866;2023-02-22T04:53:05;100495.56;;;9.88;86.23
13934;BME280;7039;52.168;9.866;2023-02-22T04:55:31;100506.41;;;9.97;86.12
13934;BME280;7039;52.168;9.866;2023-02-22T04:57:59;100497.53;;;9.82;86.64
13934;BME280;7039;52.168;9.866;2023-02-22T05:00:26;100494.94;;;9.82;86.86
13934;BME280;7039;52.168;9.866;2023-02-22T05:02:52;100499.72;;;9.92;86.41
13934;BME280;7039;52.168;9.866;2023-02-22T05:05:20;100502.31;;;10.11;85.58
13934;BME280;7039;52.168;9.866;2023-02-22T05:07:47;100489.00;;;9.98;85.79
13934;BME280;7039;52.168;9.866;2023-02-22T05:10:14;100495.06;;;9.98;86.03
13934;BME280;7039;52.168;9.866;2023-02-22T05:12:40;100493.81;;;9.88;86.13
13934;BME280;7039;52.168;9.866;2023-02-22T05:15:09;100506.59;;;10.12;85.62
13934;BME280;7039;52.168;9.866;2023-02-22T05:17:36;100496.56;;;10.21;84.92
13934;BME280;7039;52.168;9.866;2023-02-22T05:20:03;100493.63;;;10.29;84.58
13934;BME280;7039;52.168;9.866;2023-02-22T05:22:29;100488.44;;;10.29;84.56
13934;BME280;7039;52.168;9.866;2023-02-22T05:24:56;100487.97;;;10.38;84.64
13934;BME280;7039;52.168;9.866;2023-02-22T05:27:22;100490.44;;;10.41;84.55
13934;BME280;7039;52.168;9.866;2023-02-22T05:29:49;100492.81;;;10.46;84.34
13934;BME280;7039;52.168;9.866;2023-02-22T05:32:17;100488.34;;;10.48;84.00
13934;BME280;7039;52.168;9.866;2023-02-22T05:34:43;100491.25;;;10.42;83.96
13934;BME280;7039;52.168;9.866;2023-02-22T05:37:09;100483.88;;;10.33;83.78
13934;BME280;7039;52.168;9.866;2023-02-22T05:39:36;100486.84;;;10.25;84.06
13934;BME280;7039;52.168;9.866;2023-02-22T05:42:03;100484.63;;;10.17;84.71
13934;BME280;7039;52.168;9.866;2023-02-22T05:44:29;100479.25;;;10.20;84.58
13934;BME280;7039;52.168;9.866;2023-02-22T05:46:56;100480.88;;;10.23;84.67
13934;BME280;7039;52.168;9.866;2023-02-22T05:49:23;100482.16;;;10.33;84.53
13934;BME280;7039;52.168;9.866;2023-02-22T05:51:50;100473.41;;;10.34;84.11
13934;BME280;7039;52.168;9.866;2023-02-22T05:54:16;100474.53;;;10.29;84.29
13934;BME280;7039;52.168;9.866;2023-02-22T05:56:43;100470.94;;;10.31;84.15
13934;BME280;7039;52.168;9.866;2023-02-22T05:59:09;100469.97;;;10.34;84.15
13934;BME280;7039;52.168;9.866;2023-02-22T06:01:36;100464.09;;;10.29;84.26
13934;BME280;7039;52.168;9.866;2023-02-22T06:04:02;100473.47;;;10.33;83.97
13934;BME280;7039;52.168;9.866;2023-02-22T06:06:30;100476.47;;;10.42;83.90
13934;BME280;7039;52.168;9.866;2023-02-22T06:08:56;100468.66;;;10.42;83.80
13934;BME280;7039;52.168;9.866;2023-02-22T06:11:23;100467.72;;;10.43;83.73
13934;BME280;7039;52.168;9.866;2023-02-22T06:13:50;100466.44;;;10.16;84.91
13934;BME280;7039;52.168;9.866;2023-02-22T06:16:17;100467.56;;;10.29;84.50
13934;BME280;7039;52.168;9.866;2023-02-22T06:18:43;100464.75;;;10.34;84.26
13934;BME280;7039;52.168;9.866;2023-02-22T06:21:09;100462.69;;;10.40;83.93
13934;BME280;7039;52.168;9.866;2023-02-22T06:23:37;100464.28;;;10.43;83.88
13934;BME280;7039;52.168;9.866;2023-02-22T06:26:04;100458.59;;;10.35;83.57
13934;BME280;7039;52.168;9.866;2023-02-22T06:28:31;100464.09;;;10.29;83.74
13934;BME280;7039;52.168;9.866;2023-02-22T06:30:57;100461.69;;;10.24;83.91
13934;BME280;7039;52.168;9.866;2023-02-22T06:33:23;100464.09;;;10.29;83.70
13934;BME280;7039;52.168;9.866;2023-02-22T06:35:50;100460.06;;;10.21;83.80
13934;BME280;7039;52.168;9.866;2023-02-22T06:38:20;100461.84;;;10.21;83.87
13934;BME280;7039;52.168;9.866;2023-02-22T06:40:49;100461.75;;;10.05;84.15
13934;BME280;7039;52.168;9.866;2023-02-22T06:43:15;100458.00;;;10.11;84.15
13934;BME280;7039;52.168;9.866;2023-02-22T06:45:42;100461.69;;;10.07;84.27
13934;BME280;7039;52.168;9.866;2023-02-22T06:48:08;100467.88;;;10.04;84.72
13934;BME280;7039;52.168;9.866;2023-02-22T06:50:35;100458.69;;;10.14;84.60
13934;BME280;7039;52.168;9.866;2023-02-22T06:53:01;100461.78;;;10.22;84.46
13934;BME280;7039;52.168;9.866;2023-02-22T06:55:30;100466.78;;;10.27;84.43
13934;BME280;7039;52.168;9.866;2023-02-22T06:57:58;100464.22;;;10.25;84.33
13934;BME280;7039;52.168;9.866;2023-02-22T07:00:26;100469.78;;;10.37;84.23
13934;BME280;7039;52.168;9.866;2023-02-22T07:02:54;100472.41;;;10.37;84.10
13934;BME280;7039;52.168;9.866;2023-02-22T07:05:22;100468.72;;;10.41;83.88
13934;BME280;7039;52.168;9.866;2023-02-22T07:07:51;100465.28;;;10.40;83.85
13934;BME280;7039;52.168;9.866;2023-02-22T07:10:20;100469.81;;;10.54;83.85
13934;BME280;7039;52.168;9.866;2023-02-22T07:12:47;100477.44;;;10.40;83.80
13934;BME280;7039;52.168;9.866;2023-02-22T07:15:16;100471.94;;;10.46;83.51
13934;BME280;7039;52.168;9.866;2023-02-22T07:17:43;100467.09;;;10.56;83.39
13934;BME280;7039;52.168;9.866;2023-02-22T07:20:09;100474.94;;;10.56;83.18
13934;BME280;7039;52.168;9.866;2023-02-22T07:22:36;100479.91;;;10.60;83.28
13934;BME280;7039;52.168;9.866;2023-02-22T07:25:03;100477.16;;;10.63;83.14
13934;BME280;7039;52.168;9.866;2023-02-22T07:27:30;100475.03;;;10.54;83.42
13934;BME280;7039;52.168;9.866;2023-02-22T07:29:56;100475.72;;;10.75;83.06
13934;BME280;7039;52.168;9.866;2023-02-22T07:32:24;100476.78;;;10.89;82.78
13934;BME280;7039;52.168;9.866;2023-02-22T07:34:51;100476.69;;;10.90;82.81
13934;BME280;7039;52.168;9.866;2023-02-22T07:37:17;100477.97;;;10.99;82.38
13934;BME280;7039;52.168;9.866;2023-02-22T07:39:45;100474.81;;;11.10;82.45
13934;BME280;7039;52.168;9.866;2023-02-22T07:42:11;100471.41;;;11.25;82.21
13934;BME280;7039;52.168;9.866;2023-02-22T07:44:38;100476.97;;;11.35;81.70
13934;BME280;7039;52.168;9.866;2023-02-22T07:47:05;100469.06;;;11.36;81.52
13934;BME280;7039;52.168;9.866;2023-02-22T07:49:34;100466.44;;;11.36;81.65
13934;BME280;7039;52.168;9.866;2023-02-22T07:52:00;100460.50;;;11.17;82.01
13934;BME280;7039;52.168;9.866;2023-02-22T07:54:27;100467.50;;;11.16;81.89
13934;BME280;7039;52.168;9.866;2023-02-22T07:56:53;100461.00;;;11.07;82.20
13934;BME280;7039;52.168;9.866;2023-02-22T07:59:20;100455.38;;;10.82;83.43
13934;BME280;7039;52.168;9.866;2023-02-22T08:01:48;100458.25;;;10.93;83.57
13934;BME280;7039;52.168;9.866;2023-02-22T08:04:15;100463.41;;;10.95;83.50
13934;BME280;7039;52.168;9.866;2023-02-22T08:06:42;100454.06;;;10.91;83.92
13934;BME280;7039;52.168;9.866;2023-02-22T08:09:10;100448.63;;;10.78;84.39
13934;BME280;7039;52.168;9.866;2023-02-22T08:11:36;100453.09;;;11.09;83.85
13934;BME280;7039;52.168;9.866;2023-02-22T08:14:03;100458.25;;;11.11;83.21
13934;BME280;7039;52.168;9.866;2023-02-22T08:16:29;100452.44;;;11.21;83.30
13934;BME280;7039;52.168;9.866;2023-02-22T08:18:56;100458.03;;;11.31;83.09
13934;BME280;7039;52.168;9.866;2023-02-22T08:21:22;100455.84;;;11.55;82.13
13934;BME280;7039;52.168;9.866;2023-02-22T08:23:51;100451.81;;;11.65;82.00
13934;BME280;7039;52.168;9.866;2023-02-22T08:26:18;100455.09;;;11.69;81.34
13934;BME280;7039;52.168;9.866;2023-02-22T08:28:45;100454.78;;;11.91;81.19
13934;BME280;7039;52.168;9.866;2023-02-22T08:31:11;100450.25;;;11.95;80.26
13934;BME280;7039;52.168;9.866;2023-02-22T08:33:38;100451.13;;;12.09;79.60
13934;BME280;7039;52.168;9.866;2023-02-22T08:36:06;100450.13;;;12.42;78.98
13934;BME280;7039;52.168;9.866;2023-02-22T08:38:32;100448.56;;;12.54;78.38
13934;BME280;7039;52.168;9.866;2023-02-22T08:41:00;100450.34;;;12.53;77.86
13934;BME280;7039;52.168;9.866;2023-02-22T08:43:27;100452.88;;;12.55;77.95
13934;BME280;7039;52.168;9.866;2023-02-22T08:45:53;100448.72;;;12.37;78.13
13934;BME280;7039;52.168;9.866;2023-02-22T08:48:20;100450.81;;;12.60;77.98
13934;BME280;7039;52.168;9.866;2023-02-22T08:50:46;100450.09;;;12.12;78.91
13934;BME280;7039;52.168;9.866;2023-02-22T08:53:14;100436.03;;;11.83;80.11
13934;BME280;7039;52.168;9.866;2023-02-22T08:55:41;100447.00;;;12.05;79.61
13934;BME280;7039;52.168;9.866;2023-02-22T08:58:09;100437.56;;;12.03;80.23
13934;BME280;7039;52.168;9.866;2023-02-22T09:00:38;100431.19;;;12.23;79.46
13934;BME280;7039;52.168;9.866;2023-02-22T09:03:06;100426.59;;;12.12;79.66
13934;BME280;7039;52.168;9.866;2023-02-22T09:05:33;100422.78;;;12.18;79.37
13934;BME280;7039;52.168;9.866;2023-02-22T09:08:00;100426.00;;;12.37;79.08
13934;BME280;7039;52.168;9.866;2023-02-22T09:10:28;100429.25;;;12.85;77.88
13934;BME280;7039;52.168;9.866;2023-02-22T09:12:55;100422.16;;;12.87;77.05
13934;BME280;7039;52.168;9.866;2023-02-22T09:15:24;100424.13;;;12.98;76.43
13934;BME280;7039;52.168;9.866;2023-02-22T09:17:51;100421.13;;;13.33;76.39
13934;BME280;7039;52.168;9.866;2023-02-22T09:20:20;100424.03;;;13.14;76.17
13934;BME280;7039;52.168;9.866;2023-02-22T09:22:47;100420.47;;;13.01;75.65
13934;BME280;7039;52.168;9.866;2023-02-22T09:25:15;100418.91;;;12.84;76.66
13934;BME280;7039;52.168;9.866;2023-02-22T09:27:41;100417.97;;;12.99;76.30
13934;BME280;7039;52.168;9.866;2023-02-22T09:30:15;100413.38;;;12.88;76.81
13934;BME280;7039;52.168;9.866;2023-02-22T09:32:43;100396.47;;;12.65;77.65
13934;BME280;7039;52.168;9.866;2023-02-22T09:35:09;100414.19;;;12.60;77.83
13934;BME280;7039;52.168;9.866;2023-02-22T09:37:37;100410.53;;;12.48;78.07
13934;BME280;7039;52.168;9.866;2023-02-22T09:40:04;100410.22;;;12.39;78.09
13934;BME280;7039;52.168;9.866;2023-02-22T09:42:39;100412.44;;;12.61;77.92
13934;BME280;7039;52.168;9.866;2023-02-22T09:45:13;100404.09;;;12.54;78.12
13934;BME280;7039;52.168;9.866;2023-02-22T09:47:46;100409.06;;;12.73;77.42
13934;BME280;7039;52.168;9.866;2023-02-22T09:50:16;100415.88;;;12.75;77.41
13934;BME280;7039;52.168;9.866;2023-02-22T09:52:53;100407.19;;;12.89;76.83
13934;BME280;7039;52.168;9.866;2023-02-22T09:55:27;100406.28;;;12.90;76.66
13934;BME280;7039;52.168;9.866;2023-02-22T09:58:00;100412.72;;;13.13;75.75
13934;BME280;7039;52.168;9.866;2023-02-22T10:00:29;100406.38;;;12.89;76.64
13934;BME280;7039;52.168;9.866;2023-02-22T10:03:10;100398.50;;;12.89;76.73
13934;BME280;7039;52.168;9.866;2023-02-22T10:05:43;100400.38;;;13.30;75.69
13934;BME280;7039;52.168;9.866;2023-02-22T10:08:12;100395.06;;;13.31;75.18
13934;BME280;7039;52.168;9.866;2023-02-22T10:10:41;100395.28;;;13.55;75.15
13934;BME280;7039;52.168;9.866;2023-02-22T10:13:19;100391.72;;;13.56;74.99
13934;BME280;7039;52.168;9.866;2023-02-22T10:15:52;100387.13;;;13.87;74.49
13934;BME280;7039;52.168;9.866;2023-02-22T10:18:40;100392.03;;;13.79;73.88
13934;BME280;7039;52.168;9.866;2023-02-22T10:21:19;100381.84;;;14.14;72.39
13934;BME280;7039;52.168;9.866;2023-02-22T10:23:55;100389.88;;;14.38;71.74
13934;BME280;7039;52.168;9.866;2023-02-22T10:26:29;100379.34;;;14.13;71.69
13934;BME280;7039;52.168;9.866;2023-02-22T10:29:01;100379.88;;;14.31;72.17
13934;BME280;7039;52.168;9.866;2023-02-22T10:31:30;100380.03;;;14.02;72.37
13934;BME280;7039;52.168;9.866;2023-02-22T10:34:01;100377.63;;;13.99;73.34
13934;BME280;7039;52.168;9.866;2023-02-22T10:36:30;100380.19;;;14.39;72.52
13934;BME280;7039;52.168;9.866;2023-02-22T10:39:03;100377.72;;;14.63;70.98
13934;BME280;7039;52.168;9.866;2023-02-22T10:41:40;100369.63;;;14.00;72.47
13934;BME280;7039;52.168;9.866;2023-02-22T10:44:09;100360.63;;;14.05;72.88
13934;BME280;7039;52.168;9.866;2023-02-22T10:46:38;100365.50;;;14.36;71.79
13934;BME280;7039;52.168;9.866;2023-02-22T10:49:09;100356.44;;;14.02;73.08
13934;BME280;7039;52.168;9.866;2023-02-22T10:51:38;100352.56;;;14.08;72.50
13934;BME280;7039;52.168;9.866;2023-02-22T10:54:21;100357.66;;;14.62;71.58
13934;BME280;7039;52.168;9.866;2023-02-22T10:56:52;100352.72;;;14.83;70.24
13934;BME280;7039;52.168;9.866;2023-02-22T10:59:28;100355.00;;;15.00;70.10
13934;BME280;7039;52.168;9.866;2023-02-22T11:01:57;100352.91;;;14.93;69.57
13934;BME280;7039;52.168;9.866;2023-02-22T11:04:25;100346.59;;;14.44;70.37
13934;BME280;7039;52.168;9.866;2023-02-22T11:07:07;100343.91;;;14.84;70.87
13934;BME280;7039;52.168;9.866;2023-02-22T11:09:45;100344.16;;;15.18;69.39
13934;BME280;7039;52.168;9.866;2023-02-22T11:12:18;100341.53;;;15.05;70.00
13934;BME280;7039;52.168;9.866;2023-02-22T11:14:45;100332.34;;;14.48;70.72
13934;BME280;7039;52.168;9.866;2023-02-22T11:17:17;100336.66;;;14.88;70.63
13934;BME280;7039;52.168;9.866;2023-02-22T11:19:47;100336.75;;;15.23;69.23
13934;BME280;7039;52.168;9.866;2023-02-22T11:22:20;100327.25;;;15.09;69.15
13934;BME280;7039;52.168;9.866;2023-02-22T11:24:49;100330.75;;;15.58;68.15
13934;BME280;7039;52.168;9.866;2023-02-22T11:27:24;100319.59;;;15.06;68.57
13934;BME280;7039;52.168;9.866;2023-02-22T11:29:52;100325.25;;;15.85;68.32
13934;BME280;7039;52.168;9.866;2023-02-22T11:32:21;100320.06;;;16.07;66.81
13934;BME280;7039;52.168;9.866;2023-02-22T11:34:50;100314.34;;;15.54;68.21
13934;BME280;7039;52.168;9.866;2023-02-22T11:37:26;100308.34;;;16.12;66.99
13934;BME280;7039;52.168;9.866;2023-02-22T11:40:14;100311.53;;;16.73;66.50
13934;BME280;7039;52.168;9.866;2023-02-22T11:42:44;100304.69;;;16.59;65.36
13934;BME280;7039;52.168;9.866;2023-02-22T11:45:13;100294.75;;;16.29;64.67
13934;BME280;7039;52.168;9.866;2023-02-22T11:47:47;100298.47;;;16.38;65.10
13934;BME280;7039;52.168;9.866;2023-02-22T11:50:21;100290.09;;;16.44;64.86
13934;BME280;7039;52.168;9.866;2023-02-22T11:53:03;100283.75;;;16.58;63.99
13934;BME280;7039;52.168;9.866;2023-02-22T11:55:35;100284.09;;;16.76;65.88
13934;BME280;7039;52.168;9.866;2023-02-22T11:58:12;100279.31;;;17.03;64.13
13934;BME280;7039;52.168;9.866;2023-02-22T12:00:51;100278.16;;;16.51;65.05
13934;BME280;7039;52.168;9.866;2023-02-22T12:03:30;100279.44;;;16.68;64.33
13934;BME280;7039;52.168;9.866;2023-02-22T12:06:16;100275.78;;;17.25;63.48
13934;BME280;7039;52.168;9.866;2023-02-22T12:08:57;100271.53;;;17.66;63.49
13934;BME280;7039;52.168;9.866;2023-02-22T12:11:31;100276.25;;;18.26;61.85
13934;BME280;7039;52.168;9.866;2023-02-22T12:14:13;100263.28;;;17.60;62.85
13934;BME280;7039;52.168;9.866;2023-02-22T12:19:46;100247.63;;;17.58;61.72
13934;BME280;7039;52.168;9.866;2023-02-22T12:22:18;100249.13;;;17.40;62.24
13934;BME280;7039;52.168;9.866;2023-02-22T12:24:48;100251.94;;;17.27;62.33
13934;BME280;7039;52.168;9.866;2023-02-22T12:27:21;100247.53;;;17.16;62.56
13934;BME280;7039;52.168;9.866;2023-02-22T12:29:54;100246.25;;;17.10;63.64
13934;BME280;7039;52.168;9.866;2023-02-22T12:32:30;100252.66;;;17.29;63.34
13934;BME280;7039;52.168;9.866;2023-02-22T12:35:02;100250.75;;;17.52;63.31
13934;BME280;7039;52.168;9.866;2023-02-22T12:37:33;100251.31;;;17.88;63.07
13934;BME280;7039;52.168;9.866;2023-02-22T12:40:06;100249.56;;;18.19;61.89
13934;BME280;7039;52.168;9.866;2023-02-22T12:42:46;100250.31;;;18.10;61.89
13934;BME280;7039;52.168;9.866;2023-02-22T12:45:21;100246.34;;;18.46;60.36
13934;BME280;7039;52.168;9.866;2023-02-22T12:47:57;100234.91;;;18.46;59.40
13934;BME280;7039;52.168;9.866;2023-02-22T12:50:28;100227.34;;;18.22;61.44
13934;BME280;7039;52.168;9.866;2023-02-22T12:53:06;100232.06;;;18.28;61.13
13934;BME280;7039;52.168;9.866;2023-02-22T12:55:41;100238.00;;;18.91;61.30
13934;BME280;7039;52.168;9.866;2023-02-22T12:58:18;100231.00;;;18.09;60.73
13934;BME280;7039;52.168;9.866;2023-02-22T13:00:50;100222.13;;;18.10;62.38
13934;BME280;7039;52.168;9.866;2023-02-22T13:03:30;100227.09;;;18.34;60.82
13934;BME280;7039;52.168;9.866;2023-02-22T13:06:12;100220.06;;;18.54;61.26
13934;BME280;7039;52.168;9.866;2023-02-22T13:08:47;100212.09;;;18.04;60.51
13934;BME280;7039;52.168;9.866;2023-02-22T13:11:21;100217.69;;;18.11;61.00
13934;BME280;7039;52.168;9.866;2023-02-22T13:14:04;100208.72;;;17.92;60.85
13934;BME280;7039;52.168;9.866;2023-02-22T13:16:41;100204.56;;;18.00;61.80
13934;BME280;7039;52.168;9.866;2023-02-22T13:19:27;100199.69;;;17.74;60.39
13934;BME280;7039;52.168;9.866;2023-02-22T13:22:03;100194.28;;;17.54;61.46
13934;BME280;7039;52.168;9.866;2023-02-22T13:24:48;100197.06;;;17.95;61.75
13934;BME280;7039;52.168;9.866;2023-02-22T13:27:21;100187.31;;;17.74;61.58
13934;BME280;7039;52.168;9.866;2023-02-22T13:29:52;100185.34;;;18.19;60.89